createdAt,value
2017-04-30T11:55:42.384Z,30.81
2017-04-30T11:58:10.647Z,30.69
2017-04-30T12:00:38.943Z,32.39
2017-04-30T14:26:39.104Z,29.61
2017-04-30T14:29:07.355Z,28.87
2017-04-30T14:31:36.484Z,28.93
2017-04-30T14:34:04.779Z,28.90
2017-04-30T14:36:34.011Z,28.86
2017-04-30T14:39:02.677Z,28.89
2017-04-30T14:41:31.199Z,28.93
2017-04-30T14:43:59.647Z,28.65
2017-04-30T14:46:27.907Z,28.54
2017-04-30T14:48:56.216Z,28.30
2017-04-30T14:51:24.491Z,29.36
2017-04-30T14:53:52.756Z,29.96
2017-04-30T14:56:21.015Z,30.22
2017-04-30T14:58:49.307Z,30.29
2017-04-30T15:01:17.567Z,30.41
2017-04-30T15:03:45.924Z,30.44
2017-04-30T15:06:14.243Z,30.44
2017-04-30T15:08:42.503Z,30.37
2017-04-30T15:11:10.767Z,30.22
2017-04-30T15:13:39.048Z,30.39
2017-04-30T15:16:07.313Z,30.30
2017-04-30T15:18:35.580Z,30.50
2017-04-30T15:21:04.042Z,30.56
2017-04-30T15:23:32.320Z,30.60
2017-04-30T15:26:00.583Z,30.68
2017-04-30T15:28:28.872Z,30.77
2017-04-30T15:30:57.139Z,30.83
2017-04-30T15:33:25.409Z,30.78
2017-04-30T15:35:53.701Z,31.24
2017-04-30T15:38:21.966Z,30.90
2017-04-30T15:40:50.310Z,30.98
2017-04-30T15:43:19.426Z,30.72
2017-04-30T15:45:47.899Z,30.54
2017-04-30T15:48:16.353Z,30.38
2017-04-30T15:50:44.744Z,30.32
2017-04-30T15:53:13.007Z,30.61
2017-04-30T15:55:41.271Z,30.90
2017-04-30T15:58:09.554Z,30.76
2017-04-30T16:00:37.810Z,30.39
2017-04-30T16:03:06.075Z,31.34
2017-04-30T16:05:34.349Z,31.60
2017-04-30T16:08:02.603Z,31.51
2017-04-30T16:10:30.892Z,30.97
2017-04-30T16:31:08.211Z,32.98
2017-04-30T16:33:36.298Z,32.79
2017-04-30T16:36:04.284Z,32.92
2017-04-30T16:38:32.353Z,33.16
2017-04-30T16:41:00.343Z,33.11
2017-04-30T16:43:28.324Z,33.07
2017-04-30T16:45:56.329Z,32.87
2017-04-30T16:48:24.312Z,33.06
2017-04-30T16:50:52.372Z,33.26
2017-04-30T16:53:20.466Z,32.64
2017-04-30T16:55:48.442Z,33.24
2017-04-30T16:58:16.428Z,33.37
2017-04-30T17:00:44.435Z,32.68
2017-04-30T17:03:12.548Z,33.82
2017-04-30T17:05:40.521Z,33.86
2017-04-30T17:08:09.406Z,34.14
2017-04-30T17:10:37.508Z,34.71
2017-04-30T17:13:05.655Z,35.00
2017-04-30T17:15:33.713Z,35.13
2017-04-30T17:18:01.863Z,35.26
2017-04-30T17:20:29.861Z,35.56
2017-04-30T17:22:57.931Z,35.17
2017-04-30T17:25:26.077Z,34.44
2017-04-30T17:27:54.093Z,34.31
2017-04-30T17:30:22.582Z,34.19
2017-04-30T17:32:50.607Z,34.04
2017-04-30T17:35:18.697Z,34.49
2017-04-30T17:37:46.742Z,34.70
2017-04-30T17:40:14.729Z,34.38
2017-04-30T17:42:42.815Z,34.66
2017-04-30T17:45:10.900Z,34.44
2017-04-30T17:47:38.885Z,34.64
2017-04-30T17:50:06.877Z,35.17
2017-04-30T17:52:34.892Z,34.81
2017-04-30T17:55:02.890Z,35.41
2017-04-30T17:57:30.885Z,35.54
2017-04-30T17:59:59.005Z,36.02
2017-04-30T18:02:27.006Z,36.21
2017-04-30T18:04:55.038Z,36.48
2017-04-30T18:07:23.047Z,36.77
2017-04-30T18:09:51.480Z,36.97
2017-04-30T18:12:19.565Z,37.37
